Time;durP1;ratioP1;P1;durP2;ratioP2;P2;SDS_P1;SDS_P2;PMS_P1;PMS_P2;Temp;Humidity;BMP_temperature;BMP_pressure;BME280_temperature;BME280_humidity;BME280_pressure;Samples;Min_cycle;Max_cycle;Signal;HPM_P1;HPM_P2
2022/02/06 00:00:53;;;;;;;5.93;1.88;;;;;;;10.81;58.32;101127.75;4969990;28;117670;-75
2022/02/06 00:03:21;;;;;;;6.68;1.60;;;;;;;10.84;58.45;101123.19;4987203;28;123276;-76
2022/02/06 00:05:49;;;;;;;9.73;2.22;;;;;;;10.86;58.68;101121.31;4986807;28;122745;-76
2022/02/06 00:08:16;;;;;;;4.75;1.52;;;;;;;10.87;58.64;101106.31;5003389;28;119095;-76
2022/02/06 00:10:44;;;;;;;6.25;1.70;;;;;;;10.89;58.72;101115.06;4971170;28;118285;-76
2022/02/06 00:13:11;;;;;;;6.25;1.30;;;;;;;10.91;58.72;101118.50;5004295;28;123460;-76
2022/02/06 00:15:38;;;;;;;10.70;1.65;;;;;;;10.92;58.81;101109.59;4988900;28;123939;-76
2022/02/06 00:18:05;;;;;;;5.55;1.83;;;;;;;10.94;58.58;101102.44;4969825;28;120134;-75
2022/02/06 00:20:37;;;;;;;5.38;1.58;;;;;;;10.95;58.66;101093.59;4988197;28;119799;-76
2022/02/06 00:23:09;;;;;;;7.50;1.63;;;;;;;10.98;58.73;101106.72;5002989;28;123661;-76
2022/02/06 00:25:52;;;;;;;7.43;1.77;;;;;;;10.99;58.84;101095.16;4986312;28;123189;-76
2022/02/06 00:28:33;;;;;;;7.78;1.80;;;;;;;11.00;58.60;101085.41;4986763;28;118741;-76
2022/02/06 00:31:14;;;;;;;6.68;1.65;;;;;;;11.00;59.08;101086.31;4985474;28;118700;-76
2022/02/06 00:38:06;;;;;;;6.63;1.83;;;;;;;11.02;59.04;101063.25;4988051;28;123135;-76
2022/02/06 00:39:05;;;;;;;6.55;1.70;;;;;;;11.04;59.10;101072.00;4986684;28;119290;-76
2022/02/06 00:41:34;;;;;;;5.40;1.50;;;;;;;11.03;58.85;101054.34;4986343;28;118330;-76
2022/02/06 00:44:04;;;;;;;5.93;1.60;;;;;;;11.04;58.86;101061.38;4986754;28;123965;-76
2022/02/06 00:46:35;;;;;;;9.52;1.98;;;;;;;11.03;58.81;101049.06;4986858;28;123732;-76
2022/02/06 00:49:14;;;;;;;7.72;1.73;;;;;;;11.02;58.95;101031.44;4986714;28;117617;-78
2022/02/06 00:52:06;;;;;;;5.28;1.40;;;;;;;11.03;59.05;101027.84;4986217;28;119262;-76
2022/02/06 00:54:33;;;;;;;7.13;1.30;;;;;;;11.05;59.04;101031.28;4969496;28;123570;-77
2022/02/06 00:57:00;;;;;;;7.10;1.60;;;;;;;11.07;59.22;101023.28;4969923;28;124112;-77
2022/02/06 00:59:27;;;;;;;7.00;1.85;;;;;;;11.07;59.16;101024.13;4986544;28;119073;-77
2022/02/06 01:01:54;;;;;;;7.03;1.67;;;;;;;11.08;59.34;101015.25;4986584;28;118618;-77
2022/02/06 01:04:21;;;;;;;6.03;1.40;;;;;;;11.09;59.19;101017.00;5002738;28;122948;-77
2022/02/06 01:06:48;;;;;;;6.07;1.60;;;;;;;11.10;59.44;101008.09;4987801;28;125355;-77
2022/02/06 01:09:17;;;;;;;9.52;1.75;;;;;;;11.12;59.10;100999.22;4985489;28;119477;-77
2022/02/06 01:11:44;;;;;;;9.30;1.75;;;;;;;11.13;59.30;101000.94;4985715;28;119729;-77
2022/02/06 01:17:07;;;;;;;5.90;1.70;;;;;;;11.14;59.12;100994.72;5002713;28;122819;-77
2022/02/06 01:20:02;;;;;;;5.78;1.75;;;;;;;11.15;59.40;101009.69;4985704;28;120177;-77
2022/02/06 01:22:31;;;;;;;6.20;1.70;;;;;;;11.16;59.32;100995.50;4984962;28;118556;-76
2022/02/06 01:25:11;;;;;;;6.50;1.60;;;;;;;11.17;59.20;100997.22;4985416;28;123807;-77
2022/02/06 01:27:56;;;;;;;6.05;1.70;;;;;;;11.17;59.48;100989.25;4985268;28;123897;-77
2022/02/06 01:30:33;;;;;;;6.07;1.57;;;;;;;11.16;59.51;100982.25;4968475;28;118985;-77
2022/02/06 01:33:07;;;;;;;4.95;1.58;;;;;;;11.17;59.46;100997.22;4983938;28;118581;-76
2022/02/06 01:35:42;;;;;;;10.43;1.67;;;;;;;11.18;59.52;100978.59;4968677;28;123438;-77
2022/02/06 01:38:37;;;;;;;6.88;2.28;;;;;;;11.19;59.50;100966.19;4986031;28;125127;-77
2022/02/06 01:41:17;;;;;;;8.27;1.50;;;;;;;11.19;59.42;100963.53;4984460;28;119197;-77
2022/02/06 01:43:53;;;;;;;5.75;1.65;;;;;;;11.19;59.22;100963.53;4985305;28;118465;-76
2022/02/06 01:46:44;;;;;;;5.38;1.55;;;;;;;11.18;59.24;100972.44;4985186;28;123590;-76
2022/02/06 02:22:27;;;;;;;5.22;1.67;;;;;;;11.10;59.67;100925.94;4988426;28;123516;-77
2022/02/06 02:27:09;;;;;;;5.10;1.50;;;;;;;11.09;59.89;100905.66;4989991;28;118859;-77
2022/02/06 02:30:22;;;;;;;6.38;1.33;;;;;;;11.07;59.98;100891.59;4989219;28;123217;-77
2022/02/06 02:44:24;;;;;;;5.43;1.55;;;;;;;11.03;60.21;100858.22;4987230;28;124458;-77
2022/02/06 02:46:41;;;;;;;5.63;1.35;;;;;;;11.03;59.93;100858.22;4989607;28;119198;-77
2022/02/06 02:49:14;;;;;;;8.73;1.58;;;;;;;11.03;59.98;100842.31;5005020;28;118187;-77
2022/02/06 02:51:45;;;;;;;4.07;1.13;;;;;;;11.04;60.37;100833.47;4987257;28;123188;-77
2022/02/06 02:54:20;;;;;;;5.53;1.38;;;;;;;11.05;60.39;100856.34;4987764;28;123392;-77
2022/02/06 02:57:01;;;;;;;5.47;1.07;;;;;;;11.07;60.33;100864.25;4971034;28;119015;-78
2022/02/06 02:59:43;;;;;;;8.13;1.50;;;;;;;11.07;60.19;100843.88;4971295;28;118828;-77
2022/02/06 03:02:10;;;;;;;4.80;1.40;;;;;;;11.06;60.42;100826.28;4987825;28;124221;-77
2022/02/06 03:04:37;;;;;;;5.78;1.63;;;;;;;11.07;60.13;100843.88;4987730;28;122957;-77
2022/02/06 03:07:05;;;;;;;6.72;1.30;;;;;;;11.07;60.42;100833.28;4988069;28;118510;-77
2022/02/06 03:09:38;;;;;;;5.57;1.08;;;;;;;11.08;60.30;100835.03;4971631;28;117872;-77
2022/02/06 03:12:06;;;;;;;6.28;1.63;;;;;;;11.06;60.40;100839.53;4987444;28;123305;-76
2022/02/06 03:14:44;;;;;;;5.68;1.38;;;;;;;11.04;60.45;100817.56;4988244;28;123254;-77
2022/02/06 03:17:21;;;;;;;7.82;1.25;;;;;;;11.05;60.36;100808.66;4987865;28;118218;-77
2022/02/06 03:19:55;;;;;;;4.35;1.40;;;;;;;11.04;60.12;100817.56;4995263;28;117865;-75
2022/02/06 03:22:31;;;;;;;6.20;1.45;;;;;;;11.03;60.40;100826.41;4986881;28;123526;-77
2022/02/06 03:25:06;;;;;;;4.50;1.15;;;;;;;11.02;60.49;100803.53;4970727;28;123127;-77
2022/02/06 03:27:33;;;;;;;4.45;1.30;;;;;;;11.02;60.44;100803.53;4987787;28;118224;-78
2022/02/06 03:30:00;;;;;;;5.50;1.58;;;;;;;11.03;60.61;100799.91;4987885;28;119778;-77
2022/02/06 03:32:27;;;;;;;2.55;1.00;;;;;;;11.02;60.43;100803.53;4987863;28;123147;-77
2022/02/06 03:34:54;;;;;;;4.28;1.08;;;;;;;11.02;60.36;100786.72;4987603;28;122085;-76
2022/02/06 03:37:21;;;;;;;4.75;1.30;;;;;;;11.01;60.43;100775.28;4987585;28;119122;-77
2022/02/06 03:39:52;;;;;;;3.33;1.30;;;;;;;11.02;60.70;100805.28;4987559;28;118734;-77
2022/02/06 03:42:21;;;;;;;7.30;1.50;;;;;;;11.01;60.45;100801.78;4987270;28;122216;-78
2022/02/06 03:44:52;;;;;;;3.42;1.40;;;;;;;11.00;60.51;100789.47;5004025;28;122763;-77
2022/02/06 03:47:22;;;;;;;7.53;1.40;;;;;;;11.00;60.64;100789.47;4986841;28;119465;-78
2022/02/06 03:49:59;;;;;;;4.85;1.10;;;;;;;11.01;60.67;100780.59;5003651;28;119631;-78
2022/02/06 03:52:33;;;;;;;3.90;1.20;;;;;;;11.01;60.53;100779.72;4985959;28;124668;-77
2022/02/06 03:55:00;;;;;;;3.30;1.33;;;;;;;11.00;60.75;100768.28;4986827;28;124125;-77
2022/02/06 03:57:27;;;;;;;3.05;0.98;;;;;;;11.00;60.59;100784.19;4987127;28;118302;-78
2022/02/06 03:59:54;;;;;;;5.03;1.52;;;;;;;11.01;60.66;100785.03;4970351;28;118821;-78
2022/02/06 04:02:22;;;;;;;2.95;1.40;;;;;;;10.99;60.68;100771.84;5003583;28;124004;-78
2022/02/06 04:04:49;;;;;;;5.47;1.17;;;;;;;10.99;60.73;100765.69;4988904;28;123547;-78
2022/02/06 04:07:16;;;;;;;3.88;1.10;;;;;;;10.98;60.75;100754.25;4986761;28;118215;-78
2022/02/06 04:09:49;;;;;;;3.17;1.10;;;;;;;10.98;60.91;100754.25;4988451;28;119328;-79
2022/02/06 04:12:18;;;;;;;4.60;1.30;;;;;;;10.98;60.96;100753.38;4972683;28;123206;-79
2022/02/06 04:17:22;;;;;;;3.97;1.23;;;;;;;10.97;60.77;100736.63;5000416;28;118802;-78
2022/02/06 04:19:53;;;;;;;3.92;1.33;;;;;;;10.97;60.94;100735.78;5002180;28;117026;-77
2022/02/06 04:22:22;;;;;;;5.25;1.25;;;;;;;10.97;60.99;100733.97;4999976;28;123905;-77
2022/02/06 04:24:50;;;;;;;6.15;1.10;;;;;;;10.97;61.20;100730.47;4990512;28;122267;-78
2022/02/06 04:27:18;;;;;;;6.18;1.30;;;;;;;10.97;61.13;100733.97;4989977;28;118180;-78
2022/02/06 04:29:51;;;;;;;4.70;1.55;;;;;;;10.98;60.98;100721.56;4989244;28;118754;-78
2022/02/06 04:32:22;;;;;;;4.18;1.20;;;;;;;10.97;61.17;100720.72;4971915;28;124329;-78
2022/02/06 04:34:51;;;;;;;3.70;1.42;;;;;;;10.97;61.21;100711.91;4988907;28;123801;-78
2022/02/06 04:37:29;;;;;;;3.50;1.15;;;;;;;10.98;61.07;100706.56;4988314;28;119493;-78
2022/02/06 04:40:11;;;;;;;2.53;1.40;;;;;;;10.98;61.29;100717.16;4987256;28;119221;-78
2022/02/06 04:43:01;;;;;;;3.72;1.20;;;;;;;10.98;61.19;100706.56;4988781;28;123474;-78
2022/02/06 04:46:04;;;;;;;2.90;1.30;;;;;;;10.99;61.25;100696.81;4989594;28;125852;-78
2022/02/06 05:27:14;;;;;;;2.20;1.20;;;;;;;11.03;61.45;100605.59;4986440;28;123528;-77
2022/02/06 05:30:29;;;;;;;3.58;1.38;;;;;;;11.03;61.56;100608.25;4987651;28;122859;-77
2022/02/06 05:32:47;;;;;;;4.00;1.40;;;;;;;11.04;61.34;100604.69;4982176;28;120194;-78
2022/02/06 05:35:14;;;;;;;2.60;1.30;;;;;;;11.05;61.50;100596.63;4986399;28;118829;-78
2022/02/06 05:37:41;;;;;;;2.88;1.55;;;;;;;11.06;61.67;100593.06;4986190;28;122889;-78
2022/02/06 05:40:08;;;;;;;4.15;1.50;;;;;;;11.06;61.59;100598.34;4987230;28;123323;-78
2022/02/06 05:42:36;;;;;;;2.53;1.33;;;;;;;11.07;61.64;100589.47;4985940;28;119778;-77
2022/02/06 05:45:03;;;;;;;3.17;1.10;;;;;;;11.06;61.81;100577.16;4988028;28;119139;-78
2022/02/06 05:47:33;;;;;;;5.38;1.45;;;;;;;11.07;61.55;100573.56;4987335;28;123651;-77
2022/02/06 05:50:00;;;;;;;2.72;1.30;;;;;;;11.08;61.86;100575.28;4985887;28;123729;-78
2022/02/06 05:52:27;;;;;;;3.40;1.27;;;;;;;11.08;61.86;100580.59;4986978;28;118780;-79
2022/02/06 05:54:55;;;;;;;2.72;1.08;;;;;;;11.10;62.02;100568.09;4989014;28;118645;-78
2022/02/06 05:57:22;;;;;;;2.05;1.40;;;;;;;11.11;62.02;100574.25;4990403;28;122854;-77
2022/02/06 05:59:50;;;;;;;3.05;1.20;;;;;;;11.12;61.67;100575.13;4988548;28;122817;-79
2022/02/06 06:02:17;;;;;;;3.05;1.30;;;;;;;11.13;61.53;100576.84;4989519;28;119712;-79
2022/02/06 06:04:44;;;;;;;3.35;1.15;;;;;;;11.14;61.98;100578.56;4990743;28;119000;-77
2022/02/06 06:07:11;;;;;;;3.40;1.33;;;;;;;11.14;61.85;100583.88;4988967;28;123262;-79
2022/02/06 06:09:38;;;;;;;1.83;1.17;;;;;;;11.14;62.10;100573.25;4988607;28;124176;-77
2022/02/06 06:12:06;;;;;;;2.42;1.08;;;;;;;11.15;61.88;100577.59;4990445;28;118864;-79
2022/02/06 06:14:33;;;;;;;4.00;1.20;;;;;;;11.15;62.00;100569.66;5006725;28;118151;-79
2022/02/06 06:17:01;;;;;;;2.95;1.00;;;;;;;11.16;62.07;100555.47;4989471;28;124297;-78
2022/02/06 06:19:28;;;;;;;3.53;1.10;;;;;;;11.15;61.98;100553.75;4990215;28;123885;-79
2022/02/06 06:21:57;;;;;;;2.67;1.05;;;;;;;11.16;62.12;100555.47;4988633;28;120263;-78
2022/02/06 06:24:26;;;;;;;3.20;1.40;;;;;;;11.16;62.43;100550.19;4990114;28;120045;-78
2022/02/06 06:26:54;;;;;;;3.08;1.23;;;;;;;11.17;61.94;100555.41;5006480;28;124252;-79
2022/02/06 06:29:21;;;;;;;1.50;1.10;;;;;;;11.19;62.00;100550.00;4989588;28;122598;-77
2022/02/06 06:31:48;;;;;;;3.45;1.20;;;;;;;11.19;62.28;100528.78;4989856;28;119224;-79
2022/02/06 06:34:16;;;;;;;3.40;1.30;;;;;;;11.19;62.24;100523.50;4988852;28;118655;-79
2022/02/06 06:36:47;;;;;;;2.55;1.20;;;;;;;11.20;62.19;100533.16;4988049;28;123382;-78
2022/02/06 06:39:20;;;;;;;1.85;1.10;;;;;;;11.20;62.28;100526.06;4988553;28;124389;-79
2022/02/06 06:41:59;;;;;;;3.58;1.40;;;;;;;11.21;62.26;100511.03;4987553;28;120028;-79
2022/02/06 06:44:26;;;;;;;2.22;1.15;;;;;;;11.22;62.30;100515.38;4990118;28;118651;-79
2022/02/06 06:46:53;;;;;;;1.80;1.13;;;;;;;11.21;62.41;100524.28;4989246;28;123890;-78
2022/02/06 06:49:20;;;;;;;2.85;1.25;;;;;;;11.22;62.38;100512.75;4988320;28;122805;-78
2022/02/06 06:51:47;;;;;;;3.53;1.20;;;;;;;11.24;62.30;100506.41;4988108;28;118771;-79
2022/02/06 06:54:19;;;;;;;3.05;1.30;;;;;;;11.25;62.23;100491.38;4988552;28;117879;-78
2022/02/06 06:56:56;;;;;;;2.53;1.10;;;;;;;11.25;62.48;100496.69;4987406;28;124361;-79
2022/02/06 06:59:46;;;;;;;2.47;1.10;;;;;;;11.26;62.29;100499.25;4988236;28;123242;-79
2022/02/06 07:04:54;;;;;;;2.47;1.13;;;;;;;11.27;62.25;100478.91;4988255;28;118153;-78
2022/02/06 07:07:21;;;;;;;2.47;1.20;;;;;;;11.26;62.41;100458.63;4989195;28;123926;-78
2022/02/06 07:09:48;;;;;;;2.35;1.30;;;;;;;11.29;62.21;100461.09;4987764;28;123594;-78
2022/02/06 07:12:16;;;;;;;3.05;1.30;;;;;;;11.29;62.41;100461.09;4988889;28;119771;-79
2022/02/06 07:14:44;;;;;;;4.90;1.20;;;;;;;11.31;62.42;100464.53;4988246;28;119842;-79
2022/02/06 07:17:13;;;;;;;3.38;1.27;;;;;;;11.32;62.71;100455.66;4986624;28;123515;-78
2022/02/06 07:19:41;;;;;;;5.85;1.40;;;;;;;11.33;62.55;100441.44;4986180;28;124358;-79
2022/02/06 07:22:13;;;;;;;3.25;1.10;;;;;;;11.34;62.47;100432.56;4986970;28;120059;-77
2022/02/06 07:24:40;;;;;;;3.35;1.40;;;;;;;11.35;62.65;100434.25;5003522;28;118702;-79
2022/02/06 07:29:48;;;;;;;2.83;1.30;;;;;;;11.37;62.54;100439.47;4986697;28;123858;-79
2022/02/06 07:32:15;;;;;;;2.97;1.20;;;;;;;11.37;62.56;100432.38;4986097;28;119142;-77
2022/02/06 07:34:42;;;;;;;2.67;1.25;;;;;;;11.38;62.89;100428.78;4987051;28;117618;-79
2022/02/06 07:37:10;;;;;;;4.90;1.40;;;;;;;11.39;62.64;100403.97;4969226;28;122915;-79
2022/02/06 07:39:37;;;;;;;2.70;1.33;;;;;;;11.40;62.76;100405.69;5003684;28;123604;-76
2022/02/06 07:42:08;;;;;;;4.28;1.20;;;;;;;11.40;62.50;100405.69;4987453;28;119461;-79
2022/02/06 07:44:36;;;;;;;2.95;1.38;;;;;;;11.42;62.73;100393.22;4989289;28;119068;-78
2022/02/06 07:47:19;;;;;;;4.93;1.30;;;;;;;11.42;62.60;100390.56;4987237;28;122821;-77
2022/02/06 07:49:49;;;;;;;3.45;1.10;;;;;;;11.42;62.75;100382.59;5003247;28;123314;-78
2022/02/06 07:52:19;;;;;;;2.60;1.10;;;;;;;11.43;62.53;100380.78;4987491;28;118942;-78
2022/02/06 07:54:47;;;;;;;4.68;1.40;;;;;;;11.44;62.72;100379.88;4988007;28;118879;-79
2022/02/06 07:57:15;;;;;;;4.35;1.20;;;;;;;11.44;62.87;100370.09;4992672;28;123999;-79
2022/02/06 07:59:42;;;;;;;2.78;1.20;;;;;;;11.46;62.56;100362.91;4990297;28;123216;-78
2022/02/06 08:02:09;;;;;;;3.55;1.13;;;;;;;11.46;62.49;100365.56;4990125;28;120054;-78
2022/02/06 08:04:37;;;;;;;2.33;1.13;;;;;;;11.46;62.54;100357.63;4974226;28;119364;-79
2022/02/06 08:07:06;;;;;;;1.38;0.90;;;;;;;11.46;62.71;100341.72;4990112;28;124842;-79
2022/02/06 08:12:06;;;;;;;2.85;1.02;;;;;;;11.47;62.58;100322.22;4999964;28;118224;-79
2022/02/06 08:14:50;;;;;;;2.13;1.17;;;;;;;11.48;62.68;100313.31;5007776;28;117328;-78
2022/02/06 08:17:32;;;;;;;2.03;1.00;;;;;;;11.47;62.62;100316.91;5003664;28;124965;-79
2022/02/06 08:20:01;;;;;;;2.33;1.20;;;;;;;11.48;62.47;100308.00;4993690;28;122374;-79
2022/02/06 08:22:28;;;;;;;2.05;0.93;;;;;;;11.48;62.73;100308.00;4992857;28;117722;-79
2022/02/06 08:24:56;;;;;;;3.05;1.13;;;;;;;11.49;62.92;100299.13;4993753;28;116991;-79
2022/02/06 08:27:25;;;;;;;3.67;1.10;;;;;;;11.50;62.78;100295.50;4974395;28;123811;-79
2022/02/06 08:29:52;;;;;;;1.70;1.00;;;;;;;11.52;62.87;100281.31;4991400;28;122769;-79
2022/02/06 08:32:22;;;;;;;3.58;1.02;;;;;;;11.53;62.75;100283.00;4991832;28;118547;-79
2022/02/06 08:34:50;;;;;;;1.55;1.00;;;;;;;11.54;62.79;100282.06;4974019;28;119975;-79
2022/02/06 08:37:17;;;;;;;2.33;1.10;;;;;;;11.55;62.83;100270.53;4991135;28;123210;-78
2022/02/06 08:39:46;;;;;;;3.90;1.20;;;;;;;11.57;62.75;100258.03;4989427;28;125458;-79
2022/02/06 08:42:13;;;;;;;2.58;1.10;;;;;;;11.58;62.79;100255.28;4989867;28;118022;-79
2022/02/06 08:44:45;;;;;;;4.07;1.15;;;;;;;11.59;62.95;100241.06;4991537;28;118304;-78
2022/02/06 08:47:15;;;;;;;4.40;1.65;;;;;;;11.61;62.80;100233.03;4989317;28;122999;-79
2022/02/06 08:49:44;;;;;;;3.55;1.13;;;;;;;11.62;63.08;100245.34;4989109;28;123604;-80
2022/02/06 08:52:12;;;;;;;4.05;1.00;;;;;;;11.65;62.94;100223.94;4989475;28;120188;-79
2022/02/06 08:54:40;;;;;;;2.33;0.90;;;;;;;11.65;62.76;100223.94;4989993;28;119246;-79
2022/02/06 08:57:31;;;;;;;2.90;0.93;;;;;;;11.67;62.91;100206.13;4989058;28;123030;-79
2022/02/06 08:59:58;;;;;;;2.50;1.10;;;;;;;11.69;63.06;100204.25;4989208;28;122884;-79
2022/02/06 09:02:26;;;;;;;1.98;1.05;;;;;;;11.72;62.87;100198.75;4988894;28;119987;-79
2022/02/06 09:04:53;;;;;;;2.08;1.00;;;;;;;11.73;63.01;100179.22;4988173;28;117826;-77
2022/02/06 09:07:22;;;;;;;2.10;1.00;;;;;;;11.75;62.96;100177.34;4988523;28;123220;-78
2022/02/06 09:09:55;;;;;;;1.98;1.10;;;;;;;11.75;62.81;100177.34;4987847;28;123083;-78
2022/02/06 09:12:23;;;;;;;2.63;1.00;;;;;;;11.76;63.06;100171.09;4988790;28;118826;-79
2022/02/06 09:14:50;;;;;;;2.78;1.05;;;;;;;11.76;63.06;100152.53;4988443;28;118654;-78
2022/02/06 09:17:18;;;;;;;2.15;0.90;;;;;;;11.77;62.91;100143.63;5003967;28;122940;-78
2022/02/06 09:19:46;;;;;;;1.80;0.90;;;;;;;11.79;62.87;100147.03;4987132;28;122047;-78
2022/02/06 09:22:14;;;;;;;4.03;0.93;;;;;;;11.82;63.04;100136.22;4989850;28;120756;-78
2022/02/06 09:24:42;;;;;;;2.80;0.85;;;;;;;11.83;62.96;100135.28;4988730;28;118519;-78
2022/02/06 09:27:10;;;;;;;4.25;0.90;;;;;;;11.84;62.99;100123.72;5004487;28;124572;-78
2022/02/06 09:29:40;;;;;;;4.07;1.00;;;;;;;11.85;62.83;100108.69;4986698;28;123215;-78
2022/02/06 09:37:23;;;;;;;2.30;0.75;;;;;;;11.86;63.05;100095.28;4987461;28;121859;-78
2022/02/06 09:39:51;;;;;;;3.00;0.90;;;;;;;11.87;62.91;100082.88;4988574;28;123042;-78
2022/02/06 09:42:19;;;;;;;3.72;0.82;;;;;;;11.87;62.78;100089.03;5003302;28;119484;-78
2022/02/06 09:44:48;;;;;;;2.67;0.90;;;;;;;11.87;62.92;100070.47;5004559;28;119136;-79
2022/02/06 09:47:27;;;;;;;1.95;0.82;;;;;;;11.86;62.79;100068.75;4986708;28;123616;-78
2022/02/06 09:49:54;;;;;;;2.45;0.82;;;;;;;11.87;62.78;100054.56;4986249;28;122243;-78
2022/02/06 09:52:25;;;;;;;2.25;0.80;;;;;;;11.87;62.70;100053.72;4987002;28;119234;-78
2022/02/06 09:55:02;;;;;;;1.67;0.90;;;;;;;11.87;62.70;100054.56;4984726;28;118689;-79
2022/02/06 09:57:39;;;;;;;1.20;0.70;;;;;;;11.88;62.96;100045.66;5003245;28;124189;-78
2022/02/06 10:00:09;;;;;;;2.10;0.98;;;;;;;11.87;62.85;100043.94;4987132;28;124278;-78
2022/02/06 10:02:37;;;;;;;1.77;0.70;;;;;;;11.87;62.84;100043.94;5004753;28;119906;-79
2022/02/06 10:05:06;;;;;;;1.45;0.60;;;;;;;11.86;62.81;100031.59;4987284;28;118465;-78
2022/02/06 10:07:44;;;;;;;1.75;0.80;;;;;;;11.87;63.06;100028.00;4986648;28;123269;-79
2022/02/06 10:10:14;;;;;;;4.50;0.90;;;;;;;11.86;63.08;100021.00;4986473;28;123478;-79
2022/02/06 10:12:43;;;;;;;2.00;0.70;;;;;;;11.87;62.59;100012.09;4986625;28;118245;-80
2022/02/06 10:15:14;;;;;;;1.30;0.70;;;;;;;11.88;63.10;100007.63;4986679;28;118120;-79
2022/02/06 10:17:41;;;;;;;1.38;0.75;;;;;;;11.87;62.86;99990.88;4987764;28;123385;-79
2022/02/06 10:20:21;;;;;;;2.00;0.70;;;;;;;11.88;62.69;99981.97;4988610;28;124425;-78
2022/02/06 10:22:54;;;;;;;2.35;0.85;;;;;;;11.89;62.91;99972.22;4987300;28;117455;-78
2022/02/06 10:25:22;;;;;;;1.33;0.60;;;;;;;11.90;62.87;99957.16;4987859;28;119113;-79
2022/02/06 10:28:44;;;;;;;1.33;0.60;;;;;;;11.90;63.06;99951.84;4986355;28;124418;-79
2022/02/06 10:30:52;;;;;;;1.45;0.63;;;;;;;11.92;63.25;99955.25;4984001;28;122927;-79
2022/02/06 10:33:24;;;;;;;1.45;0.70;;;;;;;11.92;62.84;99940.19;4984703;28;120126;-79
2022/02/06 10:35:53;;;;;;;1.13;0.70;;;;;;;11.92;62.95;99940.19;4985730;28;119250;-78
2022/02/06 10:38:26;;;;;;;1.67;0.80;;;;;;;11.92;62.82;99936.69;4986848;28;123220;-79
2022/02/06 10:41:07;;;;;;;1.95;0.70;;;;;;;11.93;62.94;99939.25;4989381;28;123632;-79
2022/02/06 10:43:37;;;;;;;1.15;0.70;;;;;;;11.94;63.01;99926.81;4989704;28;119024;-80
2022/02/06 10:46:14;;;;;;;0.85;0.57;;;;;;;11.93;62.84;99919.81;4989358;28;117543;-79
2022/02/06 10:48:50;;;;;;;1.80;0.57;;;;;;;11.92;62.87;99903.03;4971505;28;123171;-79
2022/02/06 10:51:48;;;;;;;1.10;0.70;;;;;;;11.93;63.09;99903.91;4988944;28;124404;-79
2022/02/06 10:54:17;;;;;;;1.30;0.60;;;;;;;11.92;62.96;99902.19;4988389;28;118800;-78
2022/02/06 10:57:06;;;;;;;1.88;0.73;;;;;;;11.91;62.95;99890.72;4971911;28;117955;-80
2022/02/06 10:59:42;;;;;;;1.13;0.63;;;;;;;11.91;62.81;99868.66;4987545;28;123922;-79
2022/02/06 11:02:44;;;;;;;1.70;0.60;;;;;;;11.90;63.18;99870.44;4988427;28;123241;-80
2022/02/06 11:05:17;;;;;;;0.75;0.50;;;;;;;11.88;63.13;99849.31;4989433;28;119172;-80
2022/02/06 11:07:55;;;;;;;1.67;0.70;;;;;;;11.88;63.08;99853.75;4988207;28;118020;-79
2022/02/06 11:10:27;;;;;;;1.23;0.68;;;;;;;11.90;63.02;99840.41;4988138;28;123743;-80
2022/02/06 11:12:56;;;;;;;1.75;0.70;;;;;;;11.90;63.31;99825.34;4987717;28;123492;-80
2022/02/06 11:15:28;;;;;;;1.20;0.70;;;;;;;11.90;63.22;99821.84;4988239;28;118858;-79
2022/02/06 11:18:08;;;;;;;2.25;0.60;;;;;;;11.91;63.13;99815.59;4988422;28;119113;-79
2022/02/06 11:20:36;;;;;;;2.58;0.63;;;;;;;11.92;63.06;99811.97;4985871;28;123718;-80
2022/02/06 11:23:04;;;;;;;1.52;0.60;;;;;;;11.91;63.03;99794.38;4987652;28;123117;-80
2022/02/06 11:25:32;;;;;;;2.22;0.60;;;;;;;11.92;63.15;99785.44;4987740;28;119329;-79
2022/02/06 11:28:02;;;;;;;2.10;0.80;;;;;;;11.92;63.12;99780.13;4988381;28;120001;-80
2022/02/06 11:30:30;;;;;;;0.70;0.57;;;;;;;11.94;63.35;99775.56;4987682;28;123865;-80
2022/02/06 11:32:57;;;;;;;1.15;0.55;;;;;;;11.95;63.03;99761.34;4988620;28;123021;-80
2022/02/06 11:35:27;;;;;;;0.90;0.60;;;;;;;11.95;63.25;99748.09;4993753;28;118807;-79
2022/02/06 11:44:29;;;;;;;0.70;0.60;;;;;;;11.95;63.27;99734.81;4991387;28;123115;-80
2022/02/06 11:47:18;;;;;;;1.15;0.60;;;;;;;11.95;63.18;99748.94;4990727;28;119059;-80
2022/02/06 11:49:49;;;;;;;0.60;0.50;;;;;;;11.95;63.24;99737.47;5006123;28;117562;-80
2022/02/06 11:52:17;;;;;;;1.33;0.52;;;;;;;11.96;63.21;99717.94;4990267;28;123972;-80
2022/02/06 11:54:46;;;;;;;1.55;0.68;;;;;;;11.98;63.46;99727.50;4992073;28;124154;-81
2022/02/06 11:57:27;;;;;;;1.20;0.63;;;;;;;12.00;63.34;99722.09;4990697;28;117946;-81
2022/02/06 12:00:03;;;;;;;1.17;0.80;;;;;;;12.00;63.42;99730.06;4990399;28;118584;-81
2022/02/06 12:02:41;;;;;;;2.25;0.68;;;;;;;12.03;63.62;99735.13;4990436;28;124472;-81
2022/02/06 12:05:13;;;;;;;1.65;0.73;;;;;;;12.05;63.44;99765.06;4989401;28;122394;-81
2022/02/06 12:07:53;;;;;;;1.15;0.60;;;;;;;12.07;63.38;99879.94;4974619;28;118634;-80
2022/02/06 12:10:32;;;;;;;1.73;0.60;;;;;;;12.08;63.18;99871.03;4990002;28;118902;-81
2022/02/06 12:13:32;;;;;;;0.90;0.60;;;;;;;11.98;62.61;99880.53;4987131;28;123328;-80
2022/02/06 12:16:06;;;;;;;1.35;0.43;;;;;;;11.91;62.47;99884.59;4957548;28;124283;-80
2022/02/06 12:18:36;;;;;;;2.47;0.68;;;;;;;11.81;62.52;99879.84;4988125;28;119799;-80
2022/02/06 12:21:12;;;;;;;1.63;0.50;;;;;;;11.69;62.36;99893.91;4988880;28;118907;-80
2022/02/06 12:23:40;;;;;;;2.85;0.80;;;;;;;11.61;62.15;99893.56;4988387;28;123215;-80
2022/02/06 12:26:32;;;;;;;1.20;0.60;;;;;;;11.48;62.10;99896.97;4988470;28;124357;-80
2022/02/06 12:29:02;;;;;;;2.95;0.60;;;;;;;11.39;62.12;99910.81;4987734;28;118389;-79
2022/02/06 12:31:31;;;;;;;1.35;0.60;;;;;;;11.32;62.12;99924.56;4987744;28;118841;-80
2022/02/06 12:39:23;;;;;;;2.78;0.70;;;;;;;11.15;62.03;99944.16;4987102;28;118350;-79
2022/02/06 12:41:50;;;;;;;2.00;0.47;;;;;;;11.09;62.09;99940.97;4987360;28;118754;-78
2022/02/06 12:44:19;;;;;;;1.05;0.60;;;;;;;11.02;62.00;99944.94;4987475;28;123145;-79
2022/02/06 12:46:47;;;;;;;3.25;0.70;;;;;;;10.99;62.17;99883.34;4971219;28;123238;-78
2022/02/06 12:49:21;;;;;;;2.80;0.90;;;;;;;10.95;62.10;99882.66;4986734;28;118547;-79
2022/02/06 12:51:56;;;;;;;2.33;0.60;;;;;;;10.91;62.17;99899.72;4986985;28;118761;-79
2022/02/06 12:54:23;;;;;;;4.28;0.65;;;;;;;10.89;62.05;99912.19;5003412;28;124402;-79
2022/02/06 12:56:55;;;;;;;0.90;0.60;;;;;;;10.85;62.07;99918.59;4986985;28;123598;-78
2022/02/06 12:59:24;;;;;;;3.47;0.60;;;;;;;10.83;62.36;99923.16;4970498;28;118413;-78
2022/02/06 13:01:54;;;;;;;2.95;0.60;;;;;;;10.80;62.13;99929.50;4988215;28;118058;-79
2022/02/06 13:04:29;;;;;;;3.17;0.70;;;;;;;10.79;62.16;99927.78;4986854;28;124222;-79
2022/02/06 13:07:02;;;;;;;1.85;0.80;;;;;;;10.77;62.17;99934.97;4985978;28;123569;-79
2022/02/06 13:09:40;;;;;;;3.13;0.50;;;;;;;10.76;62.26;99937.72;4985712;28;120824;-78
2022/02/06 13:12:35;;;;;;;1.52;0.60;;;;;;;10.73;61.85;99948.50;4985921;28;119588;-79
2022/02/06 13:20:35;;;;;;;2.63;0.55;;;;;;;10.67;62.34;99958.50;4989967;28;119489;-78
2022/02/06 13:23:13;;;;;;;1.00;0.50;;;;;;;10.65;62.14;99968.34;4971282;28;117515;-79
2022/02/06 13:31:19;;;;;;;2.63;0.80;;;;;;;10.66;62.35;99963.91;4988432;28;119054;-79
2022/02/06 13:34:01;;;;;;;4.63;0.70;;;;;;;10.66;62.10;99954.19;4984352;28;118504;-79
2022/02/06 13:39:04;;;;;;;5.53;0.77;;;;;;;10.69;62.13;99955.78;4986799;28;123537;-79
2022/02/06 13:41:31;;;;;;;4.57;1.00;;;;;;;10.70;62.20;99955.69;4985712;28;118815;-78
2022/02/06 13:44:00;;;;;;;1.25;0.60;;;;;;;10.75;62.43;99954.56;4985535;28;118318;-78
2022/02/06 13:46:33;;;;;;;5.32;0.85;;;;;;;10.75;62.21;99955.41;4985348;28;122999;-78
2022/02/06 13:49:02;;;;;;;4.15;0.70;;;;;;;10.78;62.23;99962.31;4969105;28;123083;-78
2022/02/06 13:51:36;;;;;;;4.20;0.65;;;;;;;10.80;62.15;99955.13;4987169;28;119134;-79
2022/02/06 13:54:05;;;;;;;3.10;0.80;;;;;;;10.83;62.35;99960.22;4987219;28;119039;-79